Time;durP1;ratioP1;P1;durP2;ratioP2;P2;SDS_P1;SDS_P2;PMS_P1;PMS_P2;Temp;Humidity;BMP_temperature;BMP_pressure;BME280_temperature;BME280_humidity;BME280_pressure;Samples;Min_cycle;Max_cycle;Signal;HPM_P1;HPM_P2
2022/12/22 03:27:03;;;;;;;6.70;3.13;;;10.30;99.90;;;;;;5010644;28;20068;-77
2022/12/22 03:29:29;;;;;;;3.53;2.63;;;10.30;99.90;;;;;;5009437;28;20045;-76
2022/12/22 03:31:54;;;;;;;7.57;2.83;;;10.30;99.90;;;;;;5011044;28;20445;-77
2022/12/22 03:34:20;;;;;;;6.20;3.40;;;10.40;99.90;;;;;;5010698;28;20045;-78
2022/12/22 03:36:46;;;;;;;5.15;3.55;;;10.50;99.90;;;;;;5010481;28;20137;-77
2022/12/22 03:39:11;;;;;;;5.57;3.20;;;10.50;99.90;;;;;;5009588;28;20487;-77
2022/12/22 03:47:05;;;;;;;7.55;3.65;;;10.40;99.90;;;;;;5014553;28;20384;-76
2022/12/22 03:49:31;;;;;;;4.68;3.67;;;10.40;99.90;;;;;;5014015;28;20034;-78
2022/12/22 03:51:57;;;;;;;5.63;3.10;;;10.40;99.90;;;;;;5014043;28;20042;-77
2022/12/22 03:54:24;;;;;;;4.72;4.00;;;10.40;99.90;;;;;;5013946;28;20037;-77
2022/12/22 03:56:51;;;;;;;5.60;3.58;;;10.50;99.90;;;;;;5013947;28;20038;-78
2022/12/22 03:59:17;;;;;;;5.93;3.45;;;10.50;99.90;;;;;;5014359;28;20108;-79
2022/12/22 04:01:46;;;;;;;10.80;3.83;;;10.40;99.90;;;;;;5014002;28;20029;-79
2022/12/22 04:04:13;;;;;;;6.50;3.88;;;10.40;99.90;;;;;;5013955;28;20465;-78
2022/12/22 04:06:39;;;;;;;6.60;4.70;;;10.50;99.90;;;;;;5012799;28;20388;-79
2022/12/22 04:09:05;;;;;;;5.07;3.90;;;10.70;99.90;;;;;;5013626;28;20404;-80
2022/12/22 04:14:15;;;;;;;5.70;3.90;;;10.50;99.90;;;;;;5014587;28;20084;-79
2022/12/22 04:16:41;;;;;;;4.53;3.65;;;10.50;99.90;;;;;;5012587;28;20073;-77
2022/12/22 04:19:08;;;;;;;7.03;4.00;;;10.50;99.90;;;;;;5012560;28;20025;-77
2022/12/22 04:21:34;;;;;;;5.82;3.90;;;10.50;99.90;;;;;;5013622;28;20468;-78
2022/12/22 04:24:00;;;;;;;7.63;3.72;;;10.40;99.90;;;;;;5012390;28;20041;-78
2022/12/22 04:26:26;;;;;;;4.85;4.13;;;10.40;99.90;;;;;;5014086;28;20522;-78
2022/12/22 04:28:53;;;;;;;6.13;3.95;;;10.50;99.90;;;;;;5013663;28;20037;-77
2022/12/22 04:31:19;;;;;;;9.20;4.53;;;10.50;99.90;;;;;;5012703;28;20030;-78
2022/12/22 04:33:46;;;;;;;6.55;4.40;;;10.50;99.90;;;;;;5013473;28;20041;-75
2022/12/22 04:36:14;;;;;;;5.43;4.10;;;10.50;99.90;;;;;;5013337;28;20444;-77
2022/12/22 04:38:41;;;;;;;6.63;4.20;;;10.50;99.90;;;;;;5013150;28;20082;-76
2022/12/22 04:41:06;;;;;;;7.15;4.25;;;10.60;99.90;;;;;;5013816;28;20017;-77
2022/12/22 04:43:32;;;;;;;7.20;4.85;;;10.60;99.90;;;;;;5012089;28;20053;-78
2022/12/22 04:45:58;;;;;;;6.53;4.43;;;10.60;99.90;;;;;;5013168;28;20556;-78
2022/12/22 04:48:25;;;;;;;6.07;4.20;;;10.60;99.90;;;;;;5011988;28;20121;-76
2022/12/22 04:50:53;;;;;;;7.25;5.20;;;10.60;99.90;;;;;;5012999;28;20448;-77
2022/12/22 04:53:19;;;;;;;6.72;4.45;;;10.60;99.90;;;;;;5012366;28;20022;-77
2022/12/22 04:55:50;;;;;;;6.65;4.53;;;10.60;99.90;;;;;;5012646;28;20491;-77
2022/12/22 04:58:16;;;;;;;7.15;4.55;;;10.60;99.90;;;;;;5012774;28;20030;-78
2022/12/22 05:00:42;;;;;;;7.13;4.53;;;10.60;99.90;;;;;;5012796;28;20029;-76
2022/12/22 05:03:08;;;;;;;6.75;4.45;;;10.70;99.90;;;;;;5011395;28;20062;-77
2022/12/22 05:05:34;;;;;;;7.68;4.70;;;10.70;99.90;;;;;;5012554;28;20034;-77
2022/12/22 05:08:01;;;;;;;7.47;4.05;;;10.60;99.90;;;;;;5013105;28;20026;-78
2022/12/22 05:10:26;;;;;;;5.97;4.50;;;10.60;99.90;;;;;;5012493;28;20072;-77
2022/12/22 05:12:55;;;;;;;6.20;4.78;;;10.50;99.90;;;;;;5011246;28;20049;-78
2022/12/22 05:15:31;;;;;;;7.20;4.93;;;10.70;99.90;;;;;;5011241;28;20038;-78
2022/12/22 05:17:58;;;;;;;7.57;5.35;;;10.60;99.90;;;;;;5012232;28;20476;-77
2022/12/22 05:20:25;;;;;;;9.80;4.70;;;10.60;99.90;;;;;;5012753;28;20029;-77
2022/12/22 05:22:51;;;;;;;7.93;5.22;;;10.50;99.90;;;;;;5012400;28;20137;-77
2022/12/22 05:25:18;;;;;;;5.93;4.40;;;10.50;99.90;;;;;;5012390;28;20524;-77
2022/12/22 05:27:46;;;;;;;9.10;5.50;;;10.60;99.90;;;;;;5011243;28;20115;-77
2022/12/22 05:30:12;;;;;;;6.85;4.63;;;10.60;99.90;;;;;;5012267;28;20030;-77
2022/12/22 05:32:39;;;;;;;6.75;4.97;;;10.60;99.90;;;;;;5012371;28;20101;-78
2022/12/22 05:35:05;;;;;;;8.10;4.68;;;10.50;99.90;;;;;;5012609;28;20032;-78
2022/12/22 05:37:31;;;;;;;8.57;5.50;;;10.50;99.90;;;;;;5012333;28;20045;-79
2022/12/22 05:39:57;;;;;;;6.35;5.05;;;10.50;99.90;;;;;;5010975;28;20376;-78
2022/12/22 05:42:35;;;;;;;7.40;5.45;;;10.50;99.90;;;;;;5011001;28;20415;-78
2022/12/22 05:45:21;;;;;;;8.57;5.15;;;10.70;99.90;;;;;;5011923;28;20037;-77
2022/12/22 05:47:49;;;;;;;7.70;5.40;;;10.50;99.90;;;;;;5011677;28;20085;-77
2022/12/22 05:50:17;;;;;;;7.47;5.50;;;10.50;99.90;;;;;;5011657;28;20070;-76
2022/12/22 05:52:43;;;;;;;;;;;10.50;99.90;;;;;;5012557;28;20065;-77
2022/12/22 05:55:09;;;;;;;9.85;5.55;;;10.50;99.90;;;;;;5010868;28;19909;-76
2022/12/22 05:57:35;;;;;;;10.40;6.05;;;10.40;99.90;;;;;;5011722;28;20088;-77
2022/12/22 06:00:01;;;;;;;8.65;6.30;;;10.60;99.90;;;;;;5011721;28;20403;-78
2022/12/22 06:02:26;;;;;;;7.32;5.82;;;10.50;99.90;;;;;;5011906;28;20026;-78
2022/12/22 06:04:52;;;;;;;8.90;5.78;;;10.60;99.90;;;;;;5010414;28;20125;-78
2022/12/22 06:07:18;;;;;;;9.32;5.72;;;10.60;99.90;;;;;;5011599;28;20123;-78
2022/12/22 06:09:44;;;;;;;7.65;6.03;;;10.60;99.90;;;;;;5011516;28;20041;-78
2022/12/22 06:12:09;;;;;;;8.20;5.85;;;10.60;99.90;;;;;;5010638;28;20106;-77
2022/12/22 06:14:35;;;;;;;8.45;5.75;;;10.60;99.90;;;;;;5011300;28;20046;-78
2022/12/22 06:17:01;;;;;;;8.35;5.53;;;10.60;99.90;;;;;;5011931;28;20061;-79
2022/12/22 06:19:27;;;;;;;8.00;6.03;;;10.60;99.90;;;;;;5011482;28;20034;-77
2022/12/22 06:21:52;;;;;;;9.52;5.68;;;10.70;99.90;;;;;;5011457;28;20037;-77
2022/12/22 06:24:18;;;;;;;7.75;6.20;;;10.60;99.90;;;;;;5011403;28;20116;-77
2022/12/22 06:26:44;;;;;;;8.75;5.95;;;10.70;99.90;;;;;;5021007;28;20036;-76
2022/12/22 06:29:09;;;;;;;8.75;6.13;;;10.60;99.90;;;;;;5032327;28;20436;-77
2022/12/22 06:31:36;;;;;;;8.40;5.93;;;10.60;99.90;;;;;;5031127;28;20383;-79
2022/12/22 06:34:01;;;;;;;11.30;6.40;;;10.60;99.90;;;;;;5030072;28;20037;-78
2022/12/22 06:36:27;;;;;;;8.68;6.55;;;10.60;99.90;;;;;;5030906;28;20041;-77
2022/12/22 06:38:53;;;;;;;8.25;5.75;;;10.60;99.90;;;;;;5030095;28;20152;-72
2022/12/22 06:43:07;;;;;;;9.35;6.30;;;10.70;99.90;;;;;;5031675;28;20087;-76
2022/12/22 06:44:04;;;;;;;10.93;6.45;;;10.60;99.90;;;;;;5030998;28;20048;-77
2022/12/22 06:46:30;;;;;;;9.32;6.30;;;10.60;99.90;;;;;;5031138;28;20030;-78
2022/12/22 06:48:56;;;;;;;10.32;6.78;;;10.60;99.90;;;;;;5029959;28;20379;-77
2022/12/22 06:51:21;;;;;;;11.75;7.85;;;10.80;99.90;;;;;;5029999;28;20044;-77
2022/12/22 06:53:47;;;;;;;11.10;7.35;;;10.60;99.90;;;;;;5030827;28;20087;-77
2022/12/22 06:56:13;;;;;;;11.27;7.00;;;10.60;99.90;;;;;;5031046;28;20486;-78
2022/12/22 06:58:38;;;;;;;10.82;7.20;;;10.60;99.90;;;;;;5031021;28;20363;-77
2022/12/22 07:01:04;;;;;;;12.02;7.85;;;10.60;99.90;;;;;;5029771;28;20104;-77
2022/12/22 07:03:30;;;;;;;11.43;7.85;;;10.60;99.90;;;;;;5031019;28;20056;-77
2022/12/22 07:05:55;;;;;;;15.07;8.60;;;10.60;99.90;;;;;;5029408;28;20033;-77
2022/12/22 07:08:21;;;;;;;11.52;7.38;;;10.60;99.90;;;;;;5031054;28;20036;-79
2022/12/22 07:10:59;;;;;;;11.77;8.75;;;10.60;99.90;;;;;;5030861;28;20026;-79
2022/12/22 07:13:26;;;;;;;;;;;10.60;99.90;;;;;;5030888;28;20604;-77
2022/12/22 07:15:53;;;;;;;10.65;7.40;;;10.60;99.90;;;;;;5030293;28;19909;-75
2022/12/22 07:18:19;;;;;;;18.67;10.18;;;10.70;99.90;;;;;;5034596;28;20036;-76
2022/12/22 07:20:45;;;;;;;16.60;11.00;;;10.70;99.90;;;;;;5034805;28;20105;-76
2022/12/22 07:23:11;;;;;;;12.13;8.48;;;10.80;99.90;;;;;;5035186;28;20105;-76
2022/12/22 07:25:37;;;;;;;10.57;7.95;;;10.80;99.90;;;;;;5034664;28;20446;-77
2022/12/22 07:28:05;;;;;;;16.80;10.43;;;10.80;99.90;;;;;;5034914;28;20072;-76
2022/12/22 07:30:31;;;;;;;15.15;9.50;;;10.80;99.90;;;;;;5034892;28;20064;-77
2022/12/22 07:32:57;;;;;;;11.88;8.18;;;10.80;99.90;;;;;;5034579;28;20030;-76
2022/12/22 07:35:22;;;;;;;11.82;8.10;;;10.90;99.90;;;;;;5033947;28;20505;-76
2022/12/22 07:37:49;;;;;;;13.07;7.57;;;10.80;99.90;;;;;;5032881;28;20471;-78
2022/12/22 07:40:18;;;;;;;13.05;8.45;;;10.90;99.90;;;;;;5034180;28;20053;-80
2022/12/22 07:42:43;;;;;;;12.70;8.73;;;10.90;99.90;;;;;;5034312;28;20068;-78
2022/12/22 07:45:14;;;;;;;11.80;7.95;;;10.90;99.90;;;;;;5033284;28;20053;-77
2022/12/22 07:47:40;;;;;;;12.40;8.52;;;10.90;99.90;;;;;;5034066;28;20104;-77
2022/12/22 07:50:26;;;;;;;12.10;7.60;;;10.90;99.90;;;;;;5034503;28;20029;-73
2022/12/22 07:52:56;;;;;;;11.48;7.75;;;10.90;99.90;;;;;;5033106;28;20033;-73
2022/12/22 07:55:23;;;;;;;11.80;7.95;;;11.00;99.90;;;;;;5032978;28;20091;-71
2022/12/22 07:57:50;;;;;;;12.87;8.40;;;11.00;99.90;;;;;;5033662;28;20057;-71
2022/12/22 08:00:16;;;;;;;12.55;7.80;;;11.00;99.90;;;;;;5032423;28;20032;-73
2022/12/22 08:02:41;;;;;;;11.98;7.60;;;11.10;99.90;;;;;;5032568;28;20410;-75
2022/12/22 08:05:08;;;;;;;10.57;7.80;;;11.10;99.90;;;;;;5032710;28;20053;-81
2022/12/22 08:07:34;;;;;;;13.40;8.60;;;11.10;99.90;;;;;;5032548;28;20420;-72
2022/12/22 08:10:00;;;;;;;11.38;7.85;;;11.10;99.90;;;;;;5033569;28;20033;-73
2022/12/22 08:12:26;;;;;;;11.43;7.90;;;11.10;99.90;;;;;;5033399;28;20034;-72
2022/12/22 08:14:52;;;;;;;11.18;7.90;;;11.10;99.90;;;;;;5033169;28;20045;-74
2022/12/22 08:17:18;;;;;;;11.90;7.72;;;11.10;99.90;;;;;;5033681;28;20339;-73
2022/12/22 08:19:43;;;;;;;10.55;7.40;;;11.10;99.90;;;;;;5033585;28;20040;-72
2022/12/22 08:22:11;;;;;;;13.02;7.75;;;11.10;99.90;;;;;;5033427;28;20041;-74
2022/12/22 08:24:36;;;;;;;13.50;8.07;;;11.10;99.90;;;;;;5033353;28;20033;-72
2022/12/22 08:27:07;;;;;;;11.73;8.02;;;11.20;99.90;;;;;;5032988;28;20448;-73
2022/12/22 08:29:37;;;;;;;11.95;7.95;;;11.30;99.90;;;;;;5033367;28;20025;-73
2022/12/22 08:32:03;;;;;;;13.68;7.57;;;11.10;99.90;;;;;;5033640;28;20080;-74
2022/12/22 08:34:29;;;;;;;10.98;7.72;;;11.20;99.90;;;;;;5033101;28;20057;-74
2022/12/22 08:36:58;;;;;;;10.25;7.47;;;11.20;99.90;;;;;;5032867;28;20030;-70
2022/12/22 08:39:26;;;;;;;21.08;12.77;;;11.20;99.90;;;;;;5033089;28;20034;-74
2022/12/22 08:41:52;;;;;;;12.77;9.02;;;11.30;99.90;;;;;;5031757;28;20545;-72
2022/12/22 08:44:23;;;;;;;14.88;9.23;;;11.20;99.90;;;;;;5033425;28;20052;-70
2022/12/22 08:46:50;;;;;;;12.63;7.90;;;11.30;99.90;;;;;;5032719;28;20363;-72
2022/12/22 08:49:16;;;;;;;12.80;8.55;;;11.20;99.90;;;;;;5032864;28;20509;-71
2022/12/22 08:51:42;;;;;;;12.85;7.45;;;11.30;99.90;;;;;;5032895;28;20463;-72
2022/12/22 08:54:08;;;;;;;11.10;7.90;;;11.40;99.90;;;;;;5032561;28;20036;-70
2022/12/22 08:56:34;;;;;;;14.00;8.52;;;11.30;99.90;;;;;;5032835;28;20501;-71
2022/12/22 08:59:03;;;;;;;11.52;7.70;;;11.40;99.90;;;;;;5033124;28;20098;-73
2022/12/22 09:01:31;;;;;;;18.35;9.68;;;11.40;99.90;;;;;;5031627;28;20435;-71
2022/12/22 09:03:57;;;;;;;29.98;15.68;;;11.30;99.90;;;;;;5032646;28;20095;-72
2022/12/22 09:06:24;;;;;;;47.97;24.80;;;11.30;99.90;;;;;;5032677;28;20037;-74
2022/12/22 09:08:58;;;;;;;19.40;10.43;;;11.40;99.90;;;;;;5032482;28;20503;-75
2022/12/22 09:11:24;;;;;;;13.93;8.77;;;11.40;99.90;;;;;;5032974;28;20116;-74
2022/12/22 09:13:54;;;;;;;18.33;8.32;;;11.50;99.90;;;;;;5031356;28;20058;-70
2022/12/22 09:16:22;;;;;;;13.60;7.78;;;11.40;99.90;;;;;;5032363;28;20026;-71
2022/12/22 09:18:48;;;;;;;16.50;8.00;;;11.40;99.90;;;;;;5032652;28;20173;-75
2022/12/22 09:21:14;;;;;;;14.25;7.68;;;11.50;99.90;;;;;;5032471;28;20021;-73
2022/12/22 09:23:39;;;;;;;16.65;8.80;;;11.50;99.90;;;;;;5031184;28;20060;-73
2022/12/22 09:26:10;;;;;;;13.20;7.90;;;11.60;99.90;;;;;;5032915;28;20026;-75
2022/12/22 09:28:36;;;;;;;14.45;8.60;;;11.50;99.90;;;;;;5032503;28;20052;-74
2022/12/22 09:31:02;;;;;;;13.75;8.27;;;11.60;99.90;;;;;;5031115;28;20030;-73
2022/12/22 09:33:28;;;;;;;12.38;7.70;;;11.60;99.90;;;;;;5031059;28;20099;-75
2022/12/22 09:35:53;;;;;;;15.30;8.13;;;11.60;99.90;;;;;;5032439;28;20026;-73
2022/12/22 09:38:19;;;;;;;15.75;8.75;;;11.60;99.90;;;;;;5031718;28;20348;-75
2022/12/22 09:40:45;;;;;;;22.58;9.45;;;11.60;99.90;;;;;;5031562;28;20034;-73
2022/12/22 09:43:18;;;;;;;19.17;9.70;;;11.60;99.90;;;;;;5032038;28;20034;-71
2022/12/22 09:45:44;;;;;;;44.40;23.63;;;11.70;99.90;;;;;;5032010;28;20154;-74
2022/12/22 09:48:12;;;;;;;21.35;11.25;;;11.60;99.90;;;;;;5031967;28;20444;-72
2022/12/22 09:50:40;;;;;;;15.85;10.05;;;11.70;99.90;;;;;;5031955;28;20029;-73
2022/12/22 09:53:16;;;;;;;14.95;9.23;;;11.70;99.90;;;;;;5032406;28;20021;-72
2022/12/22 09:55:47;;;;;;;13.05;8.20;;;11.80;99.90;;;;;;5031742;28;20038;-73
2022/12/22 09:58:25;;;;;;;16.77;9.38;;;11.70;99.90;;;;;;5030996;28;20025;-73
2022/12/22 10:00:56;;;;;;;12.50;7.85;;;11.70;99.90;;;;;;5031494;28;20025;-78
2022/12/22 10:03:32;;;;;;;15.50;8.88;;;11.70;99.90;;;;;;5030249;28;20476;-72
2022/12/22 10:06:04;;;;;;;12.95;8.05;;;11.70;99.90;;;;;;5031663;28;20099;-74
2022/12/22 10:08:35;;;;;;;11.40;7.75;;;11.80;99.90;;;;;;5030507;28;20033;-73
2022/12/22 10:11:00;;;;;;;16.00;8.60;;;11.80;99.90;;;;;;5032247;28;20445;-73
2022/12/22 10:13:26;;;;;;;11.70;7.45;;;11.70;99.90;;;;;;5031422;28;20076;-71
2022/12/22 10:15:52;;;;;;;12.15;7.72;;;11.70;99.90;;;;;;5031519;28;20116;-72
2022/12/22 10:18:28;;;;;;;12.25;7.85;;;11.80;99.90;;;;;;5031629;28;20479;-73
2022/12/22 10:21:12;;;;;;;12.88;8.10;;;11.80;99.90;;;;;;5031001;28;20033;-71
2022/12/22 10:23:47;;;;;;;12.60;8.13;;;11.80;99.90;;;;;;5031206;28;20034;-72
2022/12/22 10:26:23;;;;;;;14.95;7.63;;;11.90;99.90;;;;;;5031614;28;20025;-73
2022/12/22 10:28:54;;;;;;;11.93;7.05;;;11.90;99.90;;;;;;5031102;28;20479;-72
2022/12/22 10:31:22;;;;;;;12.48;7.50;;;11.90;99.90;;;;;;5030920;28;20037;-74
2022/12/22 10:33:50;;;;;;;12.48;7.30;;;11.90;99.90;;;;;;5030343;28;20068;-74
2022/12/22 10:36:24;;;;;;;16.48;7.72;;;11.90;99.90;;;;;;5031067;28;20033;-73
2022/12/22 10:39:07;;;;;;;11.43;7.45;;;11.80;99.90;;;;;;5029794;28;20389;-73
2022/12/22 10:41:40;;;;;;;14.82;7.80;;;11.60;99.90;;;;;;5030825;28;20097;-72
2022/12/22 10:44:15;;;;;;;12.88;7.45;;;11.40;99.90;;;;;;5030289;28;20182;-73
2022/12/22 10:46:49;;;;;;;10.77;6.65;;;11.70;99.90;;;;;;5029751;28;20092;-73
2022/12/22 10:49:29;;;;;;;11.18;7.32;;;11.50;99.90;;;;;;5030799;28;20129;-73
2022/12/22 10:52:15;;;;;;;11.65;7.38;;;11.60;99.90;;;;;;5030722;28;20033;-72
2022/12/22 10:54:43;;;;;;;11.95;7.88;;;11.50;99.90;;;;;;5030380;28;20047;-72
2022/12/22 10:57:15;;;;;;;12.32;7.72;;;11.50;99.90;;;;;;5029312;28;20127;-72
2022/12/22 10:59:51;;;;;;;11.90;7.55;;;11.40;99.90;;;;;;5030484;28;20091;-76
2022/12/22 11:02:19;;;;;;;13.00;7.72;;;11.40;99.90;;;;;;5031361;28;20029;-73
2022/12/22 11:04:49;;;;;;;12.95;7.20;;;11.40;99.90;;;;;;5029691;28;20041;-77
2022/12/22 11:07:15;;;;;;;13.50;8.07;;;11.40;99.90;;;;;;5030406;28;20096;-72
2022/12/22 11:09:41;;;;;;;12.75;8.10;;;11.40;99.90;;;;;;5030134;28;20423;-72
2022/12/22 11:12:12;;;;;;;12.90;8.23;;;11.40;99.90;;;;;;5030727;28;20045;-72
2022/12/22 11:15:13;;;;;;;17.25;9.98;;;11.40;99.90;;;;;;5030258;28;20363;-72
2022/12/22 11:18:02;;;;;;;16.20;9.25;;;11.40;99.90;;;;;;5008751;28;20515;-71
2022/12/22 11:20:39;;;;;;;19.35;10.27;;;11.10;99.90;;;;;;5016176;28;20325;-73
2022/12/22 11:23:18;;;;;;;18.52;9.90;;;11.10;99.90;;;;;;5030816;28;20033;-73
2022/12/22 11:26:28;;;;;;;17.98;10.27;;;11.30;99.90;;;;;;5030837;28;20033;-74
2022/12/22 11:29:03;;;;;;;25.85;11.88;;;11.20;99.90;;;;;;5030887;28;20045;-78
2022/12/22 11:31:47;;;;;;;27.05;12.35;;;11.10;99.90;;;;;;5030596;28;20037;-72
2022/12/22 11:34:43;;;;;;;23.63;11.73;;;11.20;99.90;;;;;;5030700;28;20025;-72
2022/12/22 11:37:33;;;;;;;23.35;11.63;;;11.20;99.90;;;;;;5030386;28;20048;-72
2022/12/22 11:40:17;;;;;;;24.38;12.18;;;11.30;99.90;;;;;;5030635;28;20494;-73
2022/12/22 11:42:54;;;;;;;23.17;11.63;;;11.30;99.90;;;;;;5030774;28;20038;-73
2022/12/22 11:45:55;;;;;;;24.02;11.80;;;11.40;99.90;;;;;;5030781;28;20030;-73
2022/12/22 11:48:26;;;;;;;19.85;11.25;;;11.40;99.90;;;;;;5029975;28;20029;-73
2022/12/22 11:50:56;;;;;;;22.02;11.60;;;11.40;99.90;;;;;;5030968;28;20390;-73
2022/12/22 11:53:44;;;;;;;20.13;10.68;;;11.40;99.90;;;;;;5031183;28;20034;-73
2022/12/22 11:56:23;;;;;;;21.65;11.00;;;11.50;99.90;;;;;;5029356;28;20061;-72
2022/12/22 11:59:02;;;;;;;26.17;13.57;;;11.80;99.90;;;;;;5029271;28;20033;-72
2022/12/22 12:01:54;;;;;;;24.75;13.50;;;11.80;99.90;;;;;;5029274;28;20117;-73
2022/12/22 12:04:46;;;;;;;21.67;11.73;;;11.70;99.90;;;;;;5033571;28;20088;-72
2022/12/22 12:07:37;;;;;;;19.73;10.20;;;11.70;99.90;;;;;;5034177;28;20042;-73
2022/12/22 12:10:21;;;;;;;21.05;10.93;;;11.60;99.90;;;;;;5033339;28;20061;-73
2022/12/22 12:13:18;;;;;;;23.95;11.98;;;11.50;99.90;;;;;;5033522;28;20040;-73
2022/12/22 12:16:09;;;;;;;20.70;10.57;;;11.70;99.90;;;;;;5033435;28;20041;-73
2022/12/22 12:19:03;;;;;;;19.10;10.35;;;11.70;99.90;;;;;;5033454;28;20053;-71
2022/12/22 12:21:48;;;;;;;21.30;11.18;;;11.80;99.90;;;;;;5033360;28;20498;-72
2022/12/22 12:24:25;;;;;;;26.92;13.32;;;11.60;99.90;;;;;;5033801;28;20025;-74
2022/12/22 12:27:15;;;;;;;32.72;16.70;;;11.50;99.90;;;;;;5033564;28;20033;-72
2022/12/22 12:30:01;;;;;;;24.73;12.10;;;11.60;99.90;;;;;;5033718;28;20538;-73
2022/12/22 12:32:48;;;;;;;22.30;11.45;;;11.50;99.90;;;;;;5033732;28;20480;-71
2022/12/22 12:35:53;;;;;;;21.15;11.07;;;11.50;99.90;;;;;;5033641;28;20029;-71
2022/12/22 12:38:25;;;;;;;22.15;11.20;;;11.50;99.90;;;;;;5032579;28;20045;-72
2022/12/22 12:41:19;;;;;;;22.08;11.93;;;11.40;99.90;;;;;;5033280;28;20060;-72
2022/12/22 12:43:48;;;;;;;22.73;12.20;;;11.30;99.90;;;;;;5032083;28;20408;-71
2022/12/22 12:46:44;;;;;;;25.70;12.98;;;11.30;99.90;;;;;;5033419;28;20175;-73
2022/12/22 12:49:37;;;;;;;26.10;12.60;;;11.50;99.90;;;;;;5032006;28;20447;-73
2022/12/22 12:52:08;;;;;;;22.95;12.55;;;11.50;99.90;;;;;;5033254;28;20044;-72
2022/12/22 12:54:46;;;;;;;24.45;12.95;;;11.50;99.90;;;;;;5031685;28;20068;-70
2022/12/22 12:57:23;;;;;;;24.20;12.63;;;11.50;99.90;;;;;;5032998;28;20056;-71
2022/12/22 12:59:50;;;;;;;27.33;13.55;;;11.60;99.90;;;;;;5032966;28;20475;-71
2022/12/22 13:02:31;;;;;;;24.43;13.10;;;11.60;99.90;;;;;;5033422;28;20128;-71
2022/12/22 13:05:11;;;;;;;31.40;13.02;;;11.50;99.90;;;;;;5033058;28;20267;-72
2022/12/22 13:08:10;;;;;;;24.67;12.85;;;11.40;99.90;;;;;;5031765;28;20036;-73
2022/12/22 13:10:41;;;;;;;24.40;12.63;;;11.50;99.90;;;;;;5031613;28;20029;-72
2022/12/22 13:13:22;;;;;;;25.35;13.35;;;11.40;99.90;;;;;;5032454;28;20460;-73
2022/12/22 13:16:11;;;;;;;27.58;13.40;;;11.50;99.90;;;;;;5032089;28;20049;-72
2022/12/22 13:18:43;;;;;;;30.08;16.77;;;11.70;99.90;;;;;;5032604;28;20037;-72
2022/12/22 13:21:35;;;;;;;24.15;12.70;;;11.60;99.90;;;;;;5032575;28;20254;-72
2022/12/22 13:24:11;;;;;;;25.80;13.35;;;11.50;99.90;;;;;;5032623;28;20034;-71
2022/12/22 13:26:39;;;;;;;24.73;13.13;;;11.70;99.90;;;;;;5032041;28;20113;-72
2022/12/22 13:29:29;;;;;;;26.05;12.90;;;11.70;99.90;;;;;;5032239;28;20036;-72
2022/12/22 13:31:58;;;;;;;26.35;12.40;;;11.70;99.90;;;;;;5031575;28;20041;-73
2022/12/22 13:34:26;;;;;;;26.50;13.40;;;11.60;99.90;;;;;;5032641;28;20120;-73
2022/12/22 13:36:54;;;;;;;27.63;14.40;;;11.70;99.90;;;;;;5031015;28;20048;-72
2022/12/22 13:39:20;;;;;;;23.70;12.13;;;11.50;99.90;;;;;;5031572;28;20026;-74
2022/12/22 13:41:48;;;;;;;21.45;11.98;;;11.50;99.90;;;;;;5032464;28;20017;-71
2022/12/22 13:44:30;;;;;;;23.67;12.65;;;11.60;99.90;;;;;;5033134;28;20042;-73
2022/12/22 13:47:06;;;;;;;21.80;12.02;;;11.50;99.90;;;;;;5032157;28;20049;-73
2022/12/22 13:49:33;;;;;;;20.77;11.35;;;11.40;99.90;;;;;;5031944;28;20474;-72
2022/12/22 13:52:01;;;;;;;30.13;12.98;;;11.30;99.90;;;;;;5031847;28;20045;-73
2022/12/22 13:54:31;;;;;;;25.13;12.05;;;11.40;99.90;;;;;;5032569;28;20044;-75
2022/12/22 13:56:59;;;;;;;22.98;11.70;;;11.40;99.90;;;;;;5031939;28;20098;-72
2022/12/22 13:59:39;;;;;;;23.52;11.63;;;11.40;99.90;;;;;;5032213;28;20028;-72
2022/12/22 14:02:07;;;;;;;20.20;10.93;;;11.40;99.90;;;;;;5031719;28;20091;-73
2022/12/22 14:04:34;;;;;;;27.98;11.77;;;11.50;99.90;;;;;;5030734;28;20041;-72
2022/12/22 14:07:14;;;;;;;31.27;12.48;;;11.30;99.90;;;;;;5030561;28;20041;-71
2022/12/22 14:09:45;;;;;;;103.70;57.85;;;11.40;99.90;;;;;;5030738;28;20038;-74
2022/12/22 14:12:16;;;;;;;33.15;16.50;;;11.40;99.90;;;;;;5031799;28;20067;-72
2022/12/22 14:14:44;;;;;;;25.02;13.43;;;11.50;99.90;;;;;;5030743;28;20045;-73
2022/12/22 14:17:22;;;;;;;25.17;11.75;;;11.50;99.90;;;;;;5032001;28;20276;-72
2022/12/22 14:19:50;;;;;;;24.02;11.98;;;11.40;99.90;;;;;;5031554;28;20037;-72
2022/12/22 14:22:24;;;;;;;24.83;12.30;;;11.40;99.90;;;;;;5030215;28;20033;-73
2022/12/22 14:25:12;;;;;;;24.08;12.13;;;11.30;99.90;;;;;;5031331;28;20431;-72
2022/12/22 14:27:38;;;;;;;25.98;12.93;;;11.20;99.90;;;;;;5027332;28;20034;-72
2022/12/22 14:30:06;;;;;;;32.58;15.40;;;11.30;99.90;;;;;;5031426;28;20040;-74
2022/12/22 14:32:42;;;;;;;31.10;13.30;;;11.30;99.90;;;;;;5030268;28;20029;-72
2022/12/22 14:35:20;;;;;;;27.75;12.73;;;11.20;99.90;;;;;;5030773;28;20454;-74
2022/12/22 14:37:49;;;;;;;;;;;11.30;99.90;;;;;;5031217;28;20034;-74
2022/12/22 14:40:29;;;;;;;26.65;13.02;;;11.20;99.90;;;;;;5030156;28;19916;-74
2022/12/22 14:42:56;;;;;;;30.02;14.90;;;11.20;99.90;;;;;;5010758;28;20029;-73
2022/12/22 14:45:22;;;;;;;27.10;12.23;;;11.20;99.90;;;;;;5010250;28;20380;-73
2022/12/22 14:47:49;;;;;;;24.27;11.70;;;11.10;99.90;;;;;;5011332;28;20034;-73
2022/12/22 14:50:24;;;;;;;25.80;11.30;;;11.10;99.90;;;;;;5011772;28;20125;-73
2022/12/22 14:52:53;;;;;;;24.48;11.65;;;11.10;99.90;;;;;;5010240;28;20294;-73
2022/12/22 14:55:41;;;;;;;18.98;10.20;;;11.10;99.90;;;;;;5011137;28;20030;-73
2022/12/22 14:58:30;;;;;;;24.73;11.93;;;11.00;99.90;;;;;;5009989;28;20037;-74
2022/12/22 15:01:14;;;;;;;24.70;11.55;;;11.00;99.90;;;;;;5010013;28;20125;-71
2022/12/22 15:03:40;;;;;;;25.00;12.55;;;11.00;99.90;;;;;;5010996;28;20103;-76
2022/12/22 15:06:23;;;;;;;21.17;10.05;;;10.90;99.90;;;;;;5010115;28;20108;-76
2022/12/22 15:08:53;;;;;;;22.67;9.48;;;10.90;99.90;;;;;;5010179;28;20381;-76
2022/12/22 15:11:20;;;;;;;45.67;23.48;;;10.90;99.90;;;;;;5011725;28;20018;-76
2022/12/22 15:13:47;;;;;;;65.07;32.03;;;10.90;99.90;;;;;;5010983;28;20198;-74
2022/12/22 15:16:17;;;;;;;23.48;11.02;;;10.90;99.90;;;;;;5009806;28;20045;-73
2022/12/22 15:18:43;;;;;;;15.38;7.55;;;10.80;99.90;;;;;;5011050;28;20030;-75
2022/12/22 15:21:12;;;;;;;14.52;6.97;;;10.80;99.90;;;;;;5010996;28;20030;-76
2022/12/22 15:23:39;;;;;;;14.77;7.10;;;10.80;99.90;;;;;;5011308;28;20029;-76
2022/12/22 15:26:05;;;;;;;18.95;7.78;;;10.60;99.90;;;;;;5011374;28;20084;-82
2022/12/22 15:28:31;;;;;;;17.42;7.93;;;10.60;99.90;;;;;;5009711;28;20491;-74
2022/12/22 15:31:01;;;;;;;14.80;7.63;;;10.50;99.90;;;;;;5011110;28;20030;-76
2022/12/22 15:33:27;;;;;;;14.80;6.57;;;10.70;99.90;;;;;;5009629;28;20539;-73
2022/12/22 15:35:52;;;;;;;15.75;6.07;;;10.80;99.90;;;;;;5010650;28;20029;-73
2022/12/22 15:38:20;;;;;;;14.65;5.93;;;10.60;99.90;;;;;;5013137;28;20447;-75
2022/12/22 15:40:46;;;;;;;15.77;6.47;;;10.60;99.90;;;;;;5014519;28;20049;-75
2022/12/22 15:43:13;;;;;;;12.70;6.03;;;10.60;99.90;;;;;;5014404;28;20026;-74
2022/12/22 15:45:40;;;;;;;14.77;5.53;;;10.50;99.90;;;;;;5014406;28;20494;-72
2022/12/22 15:48:10;;;;;;;12.73;5.35;;;10.60;99.90;;;;;;5014498;28;20458;-72
2022/12/22 15:50:40;;;;;;;16.20;5.97;;;10.50;99.90;;;;;;5014350;28;20041;-73
2022/12/22 15:53:08;;;;;;;16.35;5.80;;;10.40;99.90;;;;;;5015213;28;20108;-72
2022/12/22 15:55:39;;;;;;;15.25;5.43;;;10.30;99.90;;;;;;5013823;28;20080;-73
2022/12/22 15:58:05;;;;;;;15.45;5.72;;;10.30;99.90;;;;;;5014613;28;20046;-71
2022/12/22 16:00:31;;;;;;;21.38;9.75;;;10.40;99.90;;;;;;5014685;28;20472;-73
2022/12/22 16:02:56;;;;;;;16.08;6.45;;;10.30;99.90;;;;;;5014366;28;20369;-74
2022/12/22 16:05:22;;;;;;;15.07;7.82;;;10.40;99.90;;;;;;5014529;28;20064;-73
2022/12/22 16:07:47;;;;;;;18.10;5.70;;;10.30;99.90;;;;;;5014158;28;20457;-71
2022/12/22 16:10:30;;;;;;;12.98;6.30;;;10.40;99.90;;;;;;5014221;28;20568;-71
2022/12/22 16:13:01;;;;;;;15.30;5.57;;;10.30;99.90;;;;;;5013847;28;20038;-71
2022/12/22 16:15:30;;;;;;;15.60;6.65;;;10.30;99.90;;;;;;5014005;28;20045;-73
2022/12/22 16:18:00;;;;;;;13.60;6.43;;;10.20;99.90;;;;;;5012625;28;20105;-70
2022/12/22 16:20:28;;;;;;;12.18;5.32;;;10.20;99.90;;;;;;5015021;28;20056;-73
2022/12/22 16:22:54;;;;;;;11.93;5.68;;;10.00;99.90;;;;;;5029850;28;20125;-74
2022/12/22 16:25:26;;;;;;;13.18;6.88;;;10.10;99.90;;;;;;5012924;28;20065;-73
2022/12/22 16:27:53;;;;;;;16.13;7.75;;;10.20;99.90;;;;;;5013774;28;20468;-73
2022/12/22 16:30:21;;;;;;;24.45;11.52;;;10.00;99.90;;;;;;5013927;28;20033;-74